Time;durP1;ratioP1;P1;durP2;ratioP2;P2;SDS_P1;SDS_P2;PMS_P1;PMS_P2;Temp;Humidity;BMP_temperature;BMP_pressure;BME280_temperature;BME280_humidity;BME280_pressure;Samples;Min_cycle;Max_cycle;Signal;HPM_P1;HPM_P2
2023/08/13 00:02:35;;;;;;;22.02;15.15;;;17.90;99.90;;;;;;5069523;28;20056;-86
2023/08/13 00:05:23;;;;;;;17.30;13.82;;;17.80;99.90;;;;;;5085649;28;20059;-87
2023/08/13 00:08:10;;;;;;;23.70;15.63;;;17.70;99.90;;;;;;5075662;28;20648;-87
2023/08/13 00:11:09;;;;;;;25.10;16.02;;;17.70;99.90;;;;;;5072813;28;20059;-87
2023/08/13 00:13:56;;;;;;;27.83;16.20;;;17.80;99.90;;;;;;5076684;28;20124;-88
2023/08/13 00:16:44;;;;;;;27.15;17.42;;;17.90;99.90;;;;;;5063211;28;20044;-88
2023/08/13 00:19:32;;;;;;;23.40;17.40;;;17.90;99.90;;;;;;5044107;28;20051;-87
2023/08/13 00:22:21;;;;;;;29.25;17.60;;;17.90;99.90;;;;;;5073386;28;20063;-88
2023/08/13 00:25:09;;;;;;;22.75;16.05;;;17.90;99.90;;;;;;5081372;28;20396;-86
2023/08/13 00:27:56;;;;;;;23.90;16.05;;;17.80;99.90;;;;;;5078906;28;20059;-87
2023/08/13 00:30:44;;;;;;;22.90;15.90;;;17.70;99.90;;;;;;5049043;28;20156;-87
2023/08/13 00:33:36;;;;;;;26.27;16.38;;;17.60;99.90;;;;;;5084431;28;20063;-87
2023/08/13 00:36:23;;;;;;;19.70;14.82;;;17.60;99.90;;;;;;5061508;28;20454;-87
2023/08/13 00:39:10;;;;;;;25.38;15.95;;;17.50;99.90;;;;;;5070016;28;20070;-87
2023/08/13 00:42:00;;;;;;;29.60;17.38;;;17.60;99.90;;;;;;5070396;28;20060;-86
2023/08/13 00:44:47;;;;;;;26.65;17.85;;;17.70;99.90;;;;;;5072498;28;20052;-87
2023/08/13 00:47:35;;;;;;;27.55;18.67;;;17.70;99.90;;;;;;5072494;28;20124;-86
2023/08/13 00:50:22;;;;;;;22.88;15.23;;;17.70;99.90;;;;;;5076096;28;20048;-86
2023/08/13 00:53:10;;;;;;;23.70;15.95;;;17.60;99.90;;;;;;5063998;28;20040;-87
2023/08/13 00:55:58;;;;;;;21.73;15.35;;;17.60;99.90;;;;;;5084175;28;20055;-87
2023/08/13 00:58:45;;;;;;;27.38;16.67;;;17.70;99.90;;;;;;5073120;28;20362;-86
2023/08/13 01:01:33;;;;;;;23.92;16.40;;;17.60;99.90;;;;;;5066480;28;20052;-85
2023/08/13 01:04:23;;;;;;;26.30;18.52;;;17.60;99.90;;;;;;5076288;28;20044;-86
2023/08/13 01:07:19;;;;;;;39.58;22.52;;;17.60;99.90;;;;;;5069517;28;20174;-88
2023/08/13 01:10:31;;;;;;;34.72;21.40;;;17.70;99.90;;;;;;5067393;28;20059;-87
2023/08/13 01:13:25;;;;;;;31.80;21.95;;;17.60;99.90;;;;;;5059300;28;20053;-87
2023/08/13 01:16:15;;;;;;;29.63;19.60;;;17.50;99.90;;;;;;5063731;28;20059;-87
2023/08/13 01:19:05;;;;;;;34.13;22.25;;;17.40;99.90;;;;;;5073313;28;20048;-87
2023/08/13 01:21:54;;;;;;;36.85;21.30;;;17.30;99.90;;;;;;5076891;28;20060;-87
2023/08/13 01:24:42;;;;;;;34.80;22.45;;;17.40;99.90;;;;;;5066343;28;20397;-86
2023/08/13 01:27:49;;;;;;;26.63;20.10;;;17.40;99.90;;;;;;5061697;28;20120;-88
2023/08/13 01:30:56;;;;;;;29.70;19.67;;;17.30;99.90;;;;;;5072324;28;20041;-87
2023/08/13 01:33:48;;;;;;;30.10;20.98;;;17.30;99.90;;;;;;5061464;28;20140;-87
2023/08/13 01:36:36;;;;;;;33.38;21.25;;;17.30;99.90;;;;;;5082921;28;20064;-88
2023/08/13 01:39:26;;;;;;;29.50;20.45;;;17.30;99.90;;;;;;5081674;28;20051;-88
2023/08/13 01:42:13;;;;;;;30.52;20.48;;;17.30;99.90;;;;;;5086785;28;20044;-86
2023/08/13 01:45:01;;;;;;;32.78;20.48;;;17.30;99.90;;;;;;5090312;28;20070;-87
2023/08/13 01:47:49;;;;;;;35.55;22.40;;;17.40;99.90;;;;;;5089626;28;20369;-88
2023/08/13 01:50:40;;;;;;;38.45;23.73;;;17.40;99.90;;;;;;5063498;28;20123;-88
2023/08/13 01:53:27;;;;;;;39.17;25.33;;;17.50;99.90;;;;;;5053006;28;20040;-88
2023/08/13 01:56:15;;;;;;;41.33;25.75;;;17.60;99.90;;;;;;5076372;28;20044;-87
2023/08/13 01:59:02;;;;;;;40.08;23.65;;;17.50;99.90;;;;;;5091302;28;20448;-87
2023/08/13 02:01:49;;;;;;;40.50;25.15;;;17.50;99.90;;;;;;5096269;28;20067;-88
2023/08/13 02:04:36;;;;;;;38.03;22.48;;;17.40;99.90;;;;;;5085936;28;20036;-87
2023/08/13 02:07:24;;;;;;;39.58;21.90;;;17.40;99.90;;;;;;5081366;28;20142;-87
2023/08/13 02:10:11;;;;;;;28.80;20.40;;;17.30;99.90;;;;;;5080537;28;20096;-88
2023/08/13 02:12:59;;;;;;;37.10;21.13;;;17.20;99.90;;;;;;5059388;28;20435;-88
2023/08/13 02:15:46;;;;;;;35.53;23.05;;;17.30;99.90;;;;;;5061539;28;20162;-88
2023/08/13 02:18:36;;;;;;;31.73;20.63;;;17.40;99.90;;;;;;5074881;28;20044;-90
2023/08/13 02:21:23;;;;;;;37.22;22.67;;;17.50;99.90;;;;;;5075619;28;20366;-88
2023/08/13 02:24:10;;;;;;;35.30;22.90;;;17.60;99.90;;;;;;5057602;28;20044;-88
2023/08/13 02:26:57;;;;;;;36.38;23.20;;;17.60;99.90;;;;;;5074035;28;20044;-89
2023/08/13 02:29:45;;;;;;;35.97;22.88;;;17.70;99.90;;;;;;5053680;28;20064;-87
2023/08/13 02:32:32;;;;;;;35.08;21.90;;;17.70;99.90;;;;;;5080528;28;20465;-87
2023/08/13 02:35:19;;;;;;;30.98;21.75;;;17.70;99.90;;;;;;5068425;28;20132;-87
2023/08/13 02:38:07;;;;;;;34.72;23.08;;;17.70;99.90;;;;;;5079577;28;20128;-90
2023/08/13 02:40:54;;;;;;;36.13;23.60;;;17.70;99.90;;;;;;5081680;28;20365;-88
2023/08/13 02:43:56;;;;;;;40.15;24.48;;;17.80;99.90;;;;;;5065873;28;20045;-89
2023/08/13 02:46:46;;;;;;;34.08;22.73;;;17.80;99.90;;;;;;5072824;28;20044;-89
2023/08/13 02:49:34;;;;;;;39.50;23.50;;;17.80;99.90;;;;;;5073368;28;20033;-89
2023/08/13 02:52:23;;;;;;;32.75;22.08;;;17.80;99.90;;;;;;5070797;28;20044;-88
2023/08/13 02:55:10;;;;;;;32.13;21.95;;;17.90;99.90;;;;;;5040676;28;20051;-89
2023/08/13 02:58:01;;;;;;;29.20;20.63;;;17.90;99.90;;;;;;5074596;28;20048;-87
2023/08/13 03:00:59;;;;;;;34.67;23.88;;;17.90;99.90;;;;;;5078472;28;20056;-87
2023/08/13 03:03:48;;;;;;;37.00;25.60;;;17.90;99.90;;;;;;5076666;28;20071;-87
2023/08/13 03:06:39;;;;;;;35.92;24.20;;;17.70;99.90;;;;;;5061530;28;20053;-88
2023/08/13 03:09:26;;;;;;;35.63;23.20;;;17.70;99.90;;;;;;5077657;28;20044;-87
2023/08/13 03:12:14;;;;;;;41.63;24.70;;;17.70;99.90;;;;;;5058961;28;20051;-87
2023/08/13 03:15:01;;;;;;;33.55;23.65;;;17.60;99.90;;;;;;5060391;28;20334;-88
2023/08/13 03:17:49;;;;;;;38.22;23.90;;;17.60;99.90;;;;;;5065014;28;20075;-87
2023/08/13 03:20:36;;;;;;;29.35;20.08;;;17.70;99.90;;;;;;5074514;28;20174;-86
2023/08/13 03:23:25;;;;;;;28.42;20.30;;;17.60;99.90;;;;;;5063327;28;20045;-87
2023/08/13 03:26:13;;;;;;;39.55;24.52;;;17.70;99.90;;;;;;5063562;28;20060;-86
2023/08/13 03:29:00;;;;;;;39.60;24.27;;;17.70;99.90;;;;;;5070760;28;20056;-87
2023/08/13 03:31:47;;;;;;;34.85;24.23;;;17.70;99.90;;;;;;5085109;28;20040;-87
2023/08/13 03:34:37;;;;;;;38.33;24.92;;;17.70;99.90;;;;;;5068314;28;20046;-87
2023/08/13 03:37:24;;;;;;;37.65;24.45;;;17.70;99.90;;;;;;5061072;28;20041;-87
2023/08/13 03:40:14;;;;;;;30.45;21.77;;;17.70;99.90;;;;;;5040375;28;20059;-87
2023/08/13 03:43:01;;;;;;;34.67;23.15;;;17.70;99.90;;;;;;5066812;28;20105;-86
2023/08/13 03:45:51;;;;;;;33.35;23.55;;;17.80;99.90;;;;;;5069626;28;20059;-86
2023/08/13 03:48:40;;;;;;;36.15;23.83;;;17.80;99.90;;;;;;5075419;28;20072;-86
2023/08/13 03:51:30;;;;;;;33.20;22.45;;;17.80;99.90;;;;;;5070725;28;20043;-87
2023/08/13 03:54:17;;;;;;;35.03;23.60;;;17.90;99.90;;;;;;5072255;28;20055;-88
2023/08/13 03:57:05;;;;;;;31.95;23.98;;;17.90;99.90;;;;;;5087535;28;20040;-87
2023/08/13 03:59:54;;;;;;;30.65;21.30;;;17.90;99.90;;;;;;5070068;28;20048;-87
2023/08/13 04:06:55;;;;;;;38.75;24.08;;;17.90;99.90;;;;;;5067727;28;20025;-87
2023/08/13 04:09:42;;;;;;;37.58;25.00;;;17.90;99.90;;;;;;5070602;28;20480;-87
2023/08/13 04:12:29;;;;;;;29.48;22.45;;;17.70;99.90;;;;;;5061489;28;20055;-87
2023/08/13 04:15:17;;;;;;;34.70;23.10;;;17.70;99.90;;;;;;5069964;28;20528;-88
2023/08/13 04:18:07;;;;;;;37.80;25.95;;;17.70;99.90;;;;;;5066197;28;20051;-87
2023/08/13 04:20:54;;;;;;;35.30;21.60;;;17.70;99.90;;;;;;5066344;28;20059;-88
2023/08/13 04:23:43;;;;;;;25.92;19.83;;;17.80;99.90;;;;;;5078809;28;20044;-88
2023/08/13 04:26:31;;;;;;;33.35;21.85;;;17.80;99.90;;;;;;5062862;28;20111;-87
2023/08/13 04:29:18;;;;;;;33.28;21.58;;;17.80;99.90;;;;;;5049617;28;20046;-87
2023/08/13 04:32:07;;;;;;;37.38;23.90;;;17.80;99.90;;;;;;5080182;28;20048;-89
2023/08/13 04:34:55;;;;;;;38.03;23.52;;;17.80;99.90;;;;;;5071575;28;20040;-89
2023/08/13 04:37:45;;;;;;;29.98;22.38;;;17.80;99.90;;;;;;5066681;28;20040;-87
2023/08/13 04:40:32;;;;;;;32.78;22.73;;;17.80;99.90;;;;;;5068276;28;20049;-88
2023/08/13 04:43:21;;;;;;;31.73;22.25;;;17.80;99.90;;;;;;5074903;28;20386;-87
2023/08/13 04:46:09;;;;;;;38.78;23.95;;;17.90;99.90;;;;;;5066419;28;20414;-86
2023/08/13 04:48:56;;;;;;;34.70;24.30;;;17.80;99.90;;;;;;5057363;28;20117;-87
2023/08/13 04:51:43;;;;;;;35.15;24.15;;;17.70;99.90;;;;;;5064738;28;20470;-87
2023/08/13 04:54:30;;;;;;;40.92;25.00;;;17.70;99.90;;;;;;5070785;28;20033;-88
2023/08/13 04:57:18;;;;;;;42.25;26.90;;;17.70;99.90;;;;;;5072679;28;20040;-88
2023/08/13 05:00:09;;;;;;;45.15;29.40;;;17.70;99.90;;;;;;5069625;28;20040;-88
2023/08/13 05:02:56;;;;;;;50.88;30.02;;;17.70;99.90;;;;;;5060954;28;20048;-88
2023/08/13 05:05:45;;;;;;;51.42;30.45;;;17.70;99.90;;;;;;5077188;28;20114;-87
2023/08/13 05:08:33;;;;;;;50.63;29.55;;;17.70;99.90;;;;;;5053208;28;20048;-88
2023/08/13 05:11:20;;;;;;;46.67;29.48;;;17.70;99.90;;;;;;5076792;28;20054;-88
2023/08/13 05:14:09;;;;;;;51.17;30.67;;;17.70;99.90;;;;;;5057616;28;20049;-89
2023/08/13 05:16:57;;;;;;;56.20;32.90;;;17.80;99.90;;;;;;5073208;28;20055;-87
2023/08/13 05:19:44;;;;;;;53.17;30.08;;;17.80;99.90;;;;;;5084863;28;20047;-87
2023/08/13 05:22:31;;;;;;;60.08;32.28;;;17.80;99.90;;;;;;5062518;28;20042;-88
2023/08/13 05:25:18;;;;;;;59.50;32.47;;;17.90;99.90;;;;;;5060555;28;20036;-87
2023/08/13 05:28:07;;;;;;;51.20;29.75;;;17.90;99.90;;;;;;5066928;28;20056;-88
2023/08/13 05:30:54;;;;;;;48.08;29.55;;;17.90;99.90;;;;;;5076996;28;20044;-87
2023/08/13 05:33:41;;;;;;;48.13;29.00;;;18.00;99.90;;;;;;5076363;28;20056;-88
2023/08/13 05:36:29;;;;;;;56.38;32.75;;;18.00;99.90;;;;;;5050229;28;20854;-86
2023/08/13 05:39:16;;;;;;;46.28;29.33;;;18.10;99.90;;;;;;5081462;28;20060;-87
2023/08/13 05:42:06;;;;;;;58.45;32.38;;;18.10;99.90;;;;;;5076642;28;20053;-87
2023/08/13 05:44:53;;;;;;;60.03;31.30;;;18.10;99.90;;;;;;5068134;28;20062;-89
2023/08/13 05:47:43;;;;;;;58.72;31.80;;;18.10;99.90;;;;;;5062166;28;20050;-88
2023/08/13 05:50:30;;;;;;;62.05;32.97;;;18.10;99.90;;;;;;5077333;28;20460;-87
2023/08/13 05:53:17;;;;;;;148.13;39.90;;;18.00;99.90;;;;;;5067505;28;20041;-87
2023/08/13 05:56:06;;;;;;;76.45;34.22;;;17.90;99.90;;;;;;5074257;28;20053;-92
2023/08/13 05:58:57;;;;;;;56.70;32.45;;;17.90;99.90;;;;;;5051793;28;20041;-91
2023/08/13 06:01:44;;;;;;;124.85;31.38;;;18.00;99.90;;;;;;5082602;28;20612;-90
2023/08/13 06:04:36;;;;;;;48.20;26.48;;;18.00;99.90;;;;;;5062572;28;20050;-90
2023/08/13 06:07:23;;;;;;;48.90;28.42;;;18.00;99.90;;;;;;5052712;28;20052;-91
2023/08/13 06:10:10;;;;;;;56.55;28.05;;;17.90;99.90;;;;;;5071654;28;20063;-90
2023/08/13 06:13:01;;;;;;;41.60;26.20;;;17.90;99.90;;;;;;5056245;28;20161;-91
2023/08/13 06:15:49;;;;;;;42.10;25.90;;;17.90;99.90;;;;;;5082386;28;20044;-92
2023/08/13 06:18:36;;;;;;;45.67;28.52;;;18.00;99.90;;;;;;5079125;28;20066;-90
2023/08/13 06:21:23;;;;;;;53.97;31.58;;;18.10;99.90;;;;;;5064500;28;20055;-92
2023/08/13 06:24:10;;;;;;;47.08;29.08;;;18.20;99.90;;;;;;5063788;28;20055;-91
2023/08/13 06:26:58;;;;;;;57.08;35.08;;;18.20;99.90;;;;;;5058956;28;20152;-93
2023/08/13 06:29:45;;;;;;;61.13;36.55;;;18.30;99.90;;;;;;5064980;28;20362;-91
2023/08/13 06:32:52;;;;;;;48.80;30.95;;;18.40;99.90;;;;;;5076286;28;20059;-91
2023/08/13 06:35:46;;;;;;;44.13;28.58;;;18.40;99.90;;;;;;5074933;28;20389;-90
2023/08/13 06:38:36;;;;;;;53.80;31.63;;;18.40;99.90;;;;;;5071808;28;20060;-90
2023/08/13 06:41:23;;;;;;;65.95;34.97;;;18.50;99.90;;;;;;5063681;28;20119;-90
2023/08/13 06:44:20;;;;;;;77.22;34.92;;;18.50;99.90;;;;;;5073388;28;20123;-88
2023/08/13 06:47:07;;;;;;;55.53;32.10;;;18.50;99.90;;;;;;5079594;28;20055;-93
2023/08/13 06:49:54;;;;;;;59.33;34.22;;;18.60;99.90;;;;;;5077578;28;20060;-91
2023/08/13 06:52:41;;;;;;;440.05;55.60;;;18.60;99.90;;;;;;5077681;28;20040;-92
2023/08/13 06:55:28;;;;;;;346.77;49.78;;;18.40;99.90;;;;;;5065181;28;20048;-89
2023/08/13 06:58:44;;;;;;;74.10;35.60;;;18.40;99.90;;;;;;5060709;28;20048;-92
2023/08/13 07:01:38;;;;;;;43.75;30.38;;;18.30;99.90;;;;;;5060328;28;20040;-92
2023/08/13 07:04:41;;;;;;;51.97;32.28;;;18.40;99.90;;;;;;5060113;28;20450;-90
2023/08/13 07:11:47;;;;;;;46.97;28.67;;;18.40;99.90;;;;;;5064650;28;20051;-91
2023/08/13 07:14:35;;;;;;;38.17;25.63;;;18.50;99.90;;;;;;5073790;28;20040;-89
2023/08/13 07:57:04;;;;;;;26.77;19.52;;;19.70;99.90;;;;;;4769667;29;20044;-90
2023/08/13 08:21:10;;;;;;;9.85;7.15;;;20.20;99.90;;;;;;4944701;29;20038;-90
2023/08/13 08:24:03;;;;;;;8.65;6.63;;;20.60;99.90;;;;;;4938999;28;20166;-89
2023/08/13 08:27:08;;;;;;;;;;;;;;;;;;;;;
2023/08/13 08:30:57;;;;;;;9.32;5.32;;;21.10;99.90;;;;;;5067776;28;20109;-87
2023/08/13 08:33:46;;;;;;;9.38;5.32;;;21.20;99.90;;;;;;5069324;28;20115;-87
2023/08/13 08:36:34;;;;;;;6.70;4.22;;;21.40;99.90;;;;;;5061055;28;20048;-90
2023/08/13 08:39:24;;;;;;;6.60;4.18;;;21.20;99.90;;;;;;5061217;28;20558;-87
2023/08/13 08:42:18;;;;;;;8.18;4.90;;;21.20;99.90;;;;;;5054342;28;20493;-90
2023/08/13 08:45:16;;;;;;;8.13;4.78;;;21.40;99.90;;;;;;5053040;28;20148;-88
2023/08/13 08:48:06;;;;;;;5.25;4.25;;;21.50;99.90;;;;;;5067085;28;20044;-88
2023/08/13 08:50:54;;;;;;;6.68;4.43;;;21.50;99.90;;;;;;5073209;28;20092;-89
2023/08/13 08:53:51;;;;;;;5.53;4.30;;;21.50;99.90;;;;;;5071249;28;20044;-85
2023/08/13 08:56:53;;;;;;;6.32;5.03;;;21.50;99.90;;;;;;5047196;28;20466;-88
2023/08/13 08:59:40;;;;;;;6.70;4.47;;;21.60;99.90;;;;;;5061833;28;20386;-89
2023/08/13 09:02:38;;;;;;;6.25;4.53;;;21.80;99.90;;;;;;5076068;28;20072;-89
2023/08/13 09:05:29;;;;;;;7.15;4.47;;;21.70;99.90;;;;;;5070950;28;20110;-91
2023/08/13 09:08:19;;;;;;;6.00;4.30;;;22.00;99.90;;;;;;5065235;28;20045;-89
2023/08/13 09:11:12;;;;;;;10.65;4.40;;;22.20;99.90;;;;;;5049317;28;20052;-89
2023/08/13 09:14:02;;;;;;;8.68;4.65;;;22.10;99.90;;;;;;5064260;28;20059;-88
2023/08/13 09:16:57;;;;;;;5.75;4.57;;;22.50;99.90;;;;;;5064411;28;20033;-89
2023/08/13 09:20:31;;;;;;;5.60;4.00;;;23.20;99.90;;;;;;5076957;28;20055;-91
2023/08/13 09:24:07;;;;;;;5.57;3.60;;;24.60;99.90;;;;;;4995593;28;20042;-89
2023/08/13 09:27:22;;;;;;;5.53;3.10;;;25.20;99.90;;;;;;5058325;28;20097;-91
2023/08/13 09:31:12;;;;;;;;;;;;;;;;;;;;;
2023/08/13 09:34:54;;;;;;;4.57;2.70;;;26.10;9.90;;;;;;4998092;28;20030;-91
2023/08/13 09:42:44;;;;;;;;;;;;;;;;;;;;;
2023/08/13 09:45:39;;;;;;;4.43;2.33;;;28.70;99.90;;;;;;4954019;28;20047;-90
2023/08/13 09:53:05;;;;;;;3.08;2.35;;;29.80;1.00;;;;;;4918082;29;20039;-87
2023/08/13 09:55:55;;;;;;;4.78;3.25;;;30.40;99.90;;;;;;4987848;28;20674;-87
2023/08/13 09:58:43;;;;;;;4.78;2.75;;;28.80;99.90;;;;;;5064028;28;20136;-91
2023/08/13 10:01:33;;;;;;;3.10;2.55;;;28.40;1.00;;;;;;5061816;28;20044;-88
2023/08/13 10:04:22;;;;;;;4.15;2.65;;;28.90;1.00;;;;;;5072844;28;20048;-90
2023/08/13 10:07:11;;;;;;;4.13;2.50;;;29.50;1.00;;;;;;5046054;28;20058;-87
2023/08/13 10:10:02;;;;;;;3.00;2.30;;;30.40;1.00;;;;;;5064922;28;20040;-91
2023/08/13 10:12:55;;;;;;;3.28;2.35;;;30.90;99.90;;;;;;5085281;28;20049;-93
2023/08/13 10:15:43;;;;;;;4.53;2.40;;;31.30;99.90;;;;;;5078941;28;20096;-90
2023/08/13 10:18:32;;;;;;;3.83;2.50;;;31.20;99.90;;;;;;5080769;28;20051;-91
2023/08/13 10:21:33;;;;;;;4.40;2.72;;;31.10;99.90;;;;;;5085994;28;20049;-88
2023/08/13 10:24:20;;;;;;;5.90;2.90;;;31.60;99.90;;;;;;5079027;28;20049;-89
2023/08/13 10:27:11;;;;;;;3.83;2.67;;;31.10;99.90;;;;;;5080682;28;20052;-83
2023/08/13 10:30:12;;;;;;;4.80;3.20;;;31.30;99.90;;;;;;5085483;28;20029;-86
2023/08/13 11:02:14;;;;;;;5.72;2.90;;;31.50;99.90;;;;;;5045995;28;20025;-90
2023/08/13 11:05:02;;;;;;;4.07;2.85;;;33.00;99.90;;;;;;5059585;28;20048;-88
2023/08/13 11:07:52;;;;;;;7.25;3.00;;;32.70;99.90;;;;;;5079297;28;20037;-87
2023/08/13 11:47:51;;;;;;;5.30;2.70;;;32.20;99.90;;;;;;4879872;29;20142;-87
2023/08/13 11:51:29;;;;;;;4.43;2.85;;;30.50;99.90;;;;;;4899606;29;20072;-86
2023/08/13 12:11:27;;;;;;;4.93;2.28;;;31.40;99.90;;;;;;4921668;28;20051;-87
2023/08/13 12:14:28;;;;;;;4.47;2.28;;;30.60;99.90;;;;;;4989152;28;20129;-85
2023/08/13 12:17:15;;;;;;;5.15;2.72;;;30.20;99.90;;;;;;5004159;28;20040;-86
2023/08/13 12:20:03;;;;;;;4.65;2.40;;;30.30;99.90;;;;;;5047745;28;20041;-85
2023/08/13 12:22:51;;;;;;;7.63;2.40;;;31.50;99.90;;;;;;5072548;28;20056;-87
2023/08/13 12:25:39;;;;;;;2.75;1.92;;;31.50;99.90;;;;;;5072493;28;20060;-85
2023/08/13 12:28:29;;;;;;;3.97;2.40;;;31.20;99.90;;;;;;5059823;28;20044;-87
2023/08/13 12:31:20;;;;;;;5.43;2.20;;;31.20;99.90;;;;;;5055965;28;20052;-87
2023/08/13 12:34:07;;;;;;;2.50;1.60;;;31.50;99.90;;;;;;5065458;28;20056;-86
2023/08/13 12:36:57;;;;;;;3.22;1.80;;;32.80;99.90;;;;;;5056316;28;20040;-87
2023/08/13 12:39:44;;;;;;;3.22;1.70;;;33.90;80.00;;;;;;5076426;28;20059;-86
2023/08/13 12:42:34;;;;;;;3.65;1.60;;;34.90;63.20;;;;;;5082187;28;20048;-86
2023/08/13 12:45:21;;;;;;;2.83;1.67;;;35.70;49.60;;;;;;5077814;28;20103;-86
2023/08/13 12:48:08;;;;;;;3.80;1.60;;;36.40;34.50;;;;;;5072218;28;20051;-85
2023/08/13 12:50:56;;;;;;;3.40;1.63;;;36.70;20.00;;;;;;5087073;28;20424;-88
2023/08/13 12:53:43;;;;;;;3.30;1.30;;;36.80;8.80;;;;;;5050822;28;20476;-87
2023/08/13 12:56:30;;;;;;;3.55;1.50;;;37.10;1.60;;;;;;5082353;28;20094;-86
2023/08/13 12:59:18;;;;;;;2.38;1.45;;;37.20;1.00;;;;;;5073614;28;20051;-86
2023/08/13 13:02:06;;;;;;;2.60;1.40;;;36.70;1.00;;;;;;5073057;28;20055;-88
2023/08/13 13:04:55;;;;;;;3.72;1.80;;;34.50;1.00;;;;;;5079537;28;20068;-86
2023/08/13 13:07:45;;;;;;;2.97;1.58;;;32.90;1.00;;;;;;5058087;28;20048;-85
2023/08/13 13:10:32;;;;;;;2.67;1.67;;;31.80;1.00;;;;;;5083816;28;20055;-87
2023/08/13 13:13:20;;;;;;;4.30;1.88;;;30.50;13.30;;;;;;5081511;28;20086;-86
2023/08/13 13:16:10;;;;;;;3.97;1.75;;;30.10;23.00;;;;;;5064616;28;20040;-87
2023/08/13 13:18:57;;;;;;;5.78;1.70;;;30.30;32.40;;;;;;5077214;28;20055;-86
2023/08/13 13:21:46;;;;;;;2.42;1.80;;;31.20;32.50;;;;;;5073480;28;20370;-87
2023/08/13 13:24:35;;;;;;;2.13;1.63;;;32.50;30.30;;;;;;5082806;28;20054;-86
2023/08/13 13:27:23;;;;;;;2.45;1.90;;;32.30;19.10;;;;;;5068854;28;20050;-87
2023/08/13 13:30:11;;;;;;;3.17;2.03;;;31.10;16.70;;;;;;5061731;28;20346;-88
2023/08/13 13:33:04;;;;;;;2.75;2.20;;;30.40;24.10;;;;;;5045558;28;20168;-83
2023/08/13 13:35:54;;;;;;;4.13;2.40;;;29.70;40.90;;;;;;5076191;28;20056;-86
2023/08/13 13:38:41;;;;;;;3.85;1.98;;;29.20;41.10;;;;;;5052708;28;20494;-86
2023/08/13 13:41:29;;;;;;;2.08;1.80;;;29.30;79.90;;;;;;5068966;28;20041;-85
2023/08/13 13:44:19;;;;;;;3.70;2.35;;;29.20;83.60;;;;;;5062276;28;20145;-87
2023/08/13 13:47:07;;;;;;;2.83;2.10;;;29.10;91.40;;;;;;5077026;28;20094;-86
2023/08/13 13:49:54;;;;;;;4.55;2.45;;;28.90;96.40;;;;;;5076338;28;20044;-84
2023/08/13 13:52:43;;;;;;;4.65;2.53;;;28.60;99.90;;;;;;5072411;28;20099;-85
2023/08/13 13:55:30;;;;;;;3.22;2.03;;;28.30;99.90;;;;;;5075852;28;20113;-87
2023/08/13 13:58:20;;;;;;;2.88;2.22;;;28.10;99.90;;;;;;5061319;28;20062;-88
2023/08/13 14:01:07;;;;;;;5.40;2.45;;;27.70;99.90;;;;;;5073424;28;20045;-88
2023/08/13 14:03:55;;;;;;;5.47;2.88;;;27.60;99.90;;;;;;5076510;28;20080;-87
2023/08/13 14:06:43;;;;;;;3.63;2.47;;;28.10;99.90;;;;;;5068486;28;20045;-87
2023/08/13 14:09:30;;;;;;;4.40;2.45;;;29.10;99.90;;;;;;5056316;28;20127;-86
2023/08/13 14:12:20;;;;;;;4.20;2.17;;;30.20;99.90;;;;;;5071560;28;20527;-86
2023/08/13 14:15:08;;;;;;;4.80;2.03;;;32.10;99.90;;;;;;5066693;28;20097;-86
2023/08/13 14:17:55;;;;;;;3.63;2.25;;;33.10;58.80;;;;;;5067531;28;20462;-85
2023/08/13 14:20:42;;;;;;;4.55;2.20;;;33.00;40.30;;;;;;5082343;28;20052;-85
2023/08/13 14:23:30;;;;;;;6.32;2.30;;;32.40;32.10;;;;;;5044367;28;20131;-84
2023/08/13 14:26:17;;;;;;;2.75;2.00;;;32.20;31.20;;;;;;5069056;28;20075;-87
2023/08/13 14:29:05;;;;;;;3.67;2.42;;;33.10;26.20;;;;;;5070752;28;20045;-86
2023/08/13 14:31:54;;;;;;;5.38;2.25;;;34.20;19.50;;;;;;5072971;28;20481;-86
2023/08/13 14:34:44;;;;;;;3.67;1.55;;;34.60;12.40;;;;;;5079373;28;20055;-86
2023/08/13 14:37:31;;;;;;;3.70;2.40;;;34.40;3.60;;;;;;5072591;28;20045;-87
2023/08/13 14:40:19;;;;;;;4.07;2.28;;;33.20;1.00;;;;;;5073412;28;20454;-86
2023/08/13 14:43:06;;;;;;;3.35;2.00;;;31.80;2.80;;;;;;5071670;28;20065;-87
2023/08/13 14:45:53;;;;;;;3.35;2.08;;;30.70;17.70;;;;;;5058917;28;20048;-87
2023/08/13 14:48:40;;;;;;;5.47;2.38;;;29.80;29.60;;;;;;5068317;28;20091;-85
2023/08/13 14:51:27;;;;;;;5.25;2.65;;;28.90;45.30;;;;;;5080117;28;20040;-87
2023/08/13 14:54:15;;;;;;;5.38;2.63;;;28.30;88.20;;;;;;5072287;28;20048;-86
2023/08/13 14:57:04;;;;;;;5.25;3.13;;;27.80;99.90;;;;;;5065348;28;20056;-88
2023/08/13 14:59:52;;;;;;;6.72;3.03;;;27.40;99.90;;;;;;5070479;28;20052;-87
2023/08/13 15:02:39;;;;;;;4.47;2.78;;;27.40;99.90;;;;;;5061973;28;20041;-87
2023/08/13 15:05:27;;;;;;;5.75;2.72;;;27.90;99.90;;;;;;5072090;28;20041;-88
2023/08/13 15:08:16;;;;;;;5.25;3.00;;;28.00;99.90;;;;;;5075275;28;20055;-87
2023/08/13 15:11:06;;;;;;;4.88;3.10;;;27.60;99.90;;;;;;5063691;28;20358;-86
2023/08/13 15:13:53;;;;;;;8.25;2.95;;;27.30;99.90;;;;;;5085823;28;20051;-88
2023/08/13 15:16:43;;;;;;;5.60;2.88;;;27.50;99.90;;;;;;5055329;28;20052;-88
2023/08/13 15:19:32;;;;;;;5.13;2.67;;;28.80;99.90;;;;;;5076871;28;20079;-86
2023/08/13 15:22:19;;;;;;;5.18;2.80;;;29.60;99.90;;;;;;5075548;28;20044;-88
2023/08/13 15:25:07;;;;;;;3.80;2.97;;;29.20;99.90;;;;;;5081726;28;20059;-86
2023/08/13 15:27:54;;;;;;;4.25;3.30;;;27.60;99.90;;;;;;5082655;28;20043;-84
2023/08/13 15:30:42;;;;;;;5.80;3.75;;;26.60;99.90;;;;;;5074779;28;20408;-83
2023/08/13 15:33:29;;;;;;;6.72;3.58;;;25.90;99.90;;;;;;5085526;28;20043;-88
2023/08/13 15:36:16;;;;;;;6.40;3.50;;;25.60;99.90;;;;;;5079335;28;20072;-85
2023/08/13 15:39:04;;;;;;;6.13;3.45;;;25.30;99.90;;;;;;5057491;28;20052;-86
2023/08/13 15:41:52;;;;;;;5.13;3.50;;;25.20;99.90;;;;;;5071984;28;20039;-86
2023/08/13 15:44:41;;;;;;;6.57;3.40;;;25.00;99.90;;;;;;5076889;28;20036;-88
2023/08/13 15:47:29;;;;;;;5.30;3.58;;;25.00;99.90;;;;;;5066741;28;20051;-87
2023/08/13 15:50:16;;;;;;;3.70;3.20;;;25.00;99.90;;;;;;5054412;28;20392;-90
2023/08/13 15:53:04;;;;;;;7.10;3.50;;;24.90;1.00;;;;;;5067083;28;20452;-88
2023/08/13 15:55:53;;;;;;;6.13;3.10;;;24.80;1.00;;;;;;5081183;28;20070;-87
2023/08/13 15:58:41;;;;;;;9.85;4.65;;;24.70;1.00;;;;;;5062219;28;20045;-89
2023/08/13 16:01:31;;;;;;;6.40;4.10;;;24.50;99.90;;;;;;5068429;28;20044;-89
2023/08/13 16:04:18;;;;;;;6.95;3.92;;;24.20;99.90;;;;;;5078350;28;20123;-89
2023/08/13 16:07:06;;;;;;;5.65;3.85;;;23.90;1.00;;;;;;5074737;28;20048;-88
2023/08/13 16:09:53;;;;;;;8.25;5.32;;;23.70;99.90;;;;;;5073616;28;20054;-88
2023/08/13 16:12:40;;;;;;;5.00;1.90;;;23.50;1.00;;;;;;5065417;28;20067;-90
2023/08/13 16:15:28;;;;;;;2.78;1.50;;;22.10;47.00;;;;;;5079301;28;20305;-91
2023/08/13 16:18:19;;;;;;;3.63;2.70;;;21.00;99.90;;;;;;5063527;28;20036;-88
2023/08/13 16:21:07;;;;;;;6.17;3.27;;;20.90;99.90;;;;;;5070085;28;20051;-90
2023/08/13 16:23:56;;;;;;;2.47;1.70;;;21.10;99.90;;;;;;5079835;28;20281;-89
2023/08/13 16:27:01;;;;;;;2.00;1.80;;;21.50;11.80;;;;;;5063891;28;20048;-91
2023/08/13 16:29:51;;;;;;;1.15;1.02;;;22.20;1.00;;;;;;5069330;28;20127;-89
2023/08/13 16:32:40;;;;;;;3.15;1.17;;;22.60;1.00;;;;;;5074206;28;20398;-90
2023/08/13 16:35:28;;;;;;;2.47;1.30;;;22.80;99.90;;;;;;5070306;28;20484;-89
2023/08/13 16:38:15;;;;;;;1.95;1.00;;;23.10;1.00;;;;;;5082107;28;20051;-90
2023/08/13 16:41:03;;;;;;;1.23;0.90;;;23.20;1.00;;;;;;5080769;28;20053;-89
2023/08/13 16:43:50;;;;;;;1.80;1.50;;;23.30;1.00;;;;;;5081028;28;20134;-89
2023/08/13 16:46:40;;;;;;;1.75;1.40;;;23.50;99.90;;;;;;5083798;28;20096;-91
2023/08/13 16:49:28;;;;;;;2.80;1.73;;;23.20;1.00;;;;;;5078155;28;20119;-90
2023/08/13 16:52:15;;;;;;;11.07;7.90;;;23.30;1.00;;;;;;5084382;28;20044;-90
2023/08/13 16:55:05;;;;;;;3.15;1.85;;;23.10;1.00;;;;;;5081645;28;20056;-91
2023/08/13 16:57:55;;;;;;;1.88;1.65;;;23.00;1.00;;;;;;5075796;28;20045;-89
2023/08/13 17:00:44;;;;;;;9.10;6.82;;;22.70;99.90;;;;;;5077045;28;20060;-88
2023/08/13 17:03:32;;;;;;;12.18;6.43;;;22.40;27.30;;;;;;5065110;28;20129;-89
2023/08/13 17:06:19;;;;;;;9.90;6.55;;;22.20;1.00;;;;;;5072361;28;20044;-91
2023/08/13 17:09:08;;;;;;;4.03;2.45;;;21.90;59.80;;;;;;5066676;28;20053;-90
2023/08/13 17:12:14;;;;;;;4.55;2.20;;;21.60;99.90;;;;;;5074541;28;20046;-90
2023/08/13 17:19:06;;;;;;;3.40;1.92;;;21.60;99.90;;;;;;5045408;28;20168;-94
2023/08/13 17:22:06;;;;;;;2.85;2.00;;;21.70;1.00;;;;;;5036146;28;20060;-93
2023/08/13 17:25:25;;;;;;;3.97;2.20;;;21.70;99.90;;;;;;4974164;28;20047;-91
2023/08/13 17:28:22;;;;;;;5.95;2.00;;;21.50;99.90;;;;;;4974943;28;20055;-93